Opava, Czech Republic
Current Conditions -  °F | °C
As of 5:00 PM on Monday 24 Nov 2014 (Local Time) from LKMT Reporting Station
Few Clouds Few Clouds  
Wind Chill: 32°   Ceiling: Unl
Heat Index: 41°   Visibility: 4mi
Dew Point: 32°   Wind: 17mph
Humidity: 70%   Direction: 220°SW
Pressure: 30.24"   Gusts: NA
Location:  49.94°N, 17.89°E
Report Text: LKMT 241500Z 22015KT 6000 FEW026 05/00 Q1024 TEMPO 4000 BR
Loading
Personal Weather Stations






























Interactive Weather Map New forecast layout! Learn more

10-Day Weather Forecast

Advertisements
Track Severe Weather on mobile